Time;durP1;ratioP1;P1;durP2;ratioP2;P2;SDS_P1;SDS_P2;PMS_P1;PMS_P2;Temp;Humidity;BMP_temperature;BMP_pressure;BME280_temperature;BME280_humidity;BME280_pressure;Samples;Min_cycle;Max_cycle;Signal;HPM_P1;HPM_P2
2022/04/10 00:01:29;;;;;;;11.53;4.80;;;6.80;99.90;;;;;;5041118;28;20630;-65
2022/04/10 00:03:56;;;;;;;3.73;3.17;;;6.80;99.90;;;;;;5075692;28;20234;-65
2022/04/10 00:06:22;;;;;;;4.60;3.67;;;6.80;99.90;;;;;;5092166;28;20213;-65
2022/04/10 00:08:48;;;;;;;3.57;3.27;;;6.80;99.90;;;;;;5093980;28;20173;-65
2022/04/10 00:11:14;;;;;;;4.90;3.60;;;6.80;99.90;;;;;;5093755;28;20195;-65
2022/04/10 00:13:39;;;;;;;4.23;3.30;;;6.90;99.90;;;;;;5059190;28;20188;-65
2022/04/10 00:16:05;;;;;;;5.30;3.70;;;6.90;99.90;;;;;;5058887;28;20649;-64
2022/04/10 00:18:31;;;;;;;3.73;3.43;;;7.10;99.90;;;;;;5075364;28;20188;-64
2022/04/10 00:20:57;;;;;;;4.93;3.00;;;7.10;99.90;;;;;;5075464;28;20192;-65
2022/04/10 00:23:23;;;;;;;4.03;2.90;;;7.00;99.90;;;;;;5093537;28;20184;-65
2022/04/10 00:25:48;;;;;;;3.43;3.07;;;6.90;99.90;;;;;;5074946;28;20227;-65
2022/04/10 00:28:14;;;;;;;5.00;3.53;;;6.80;99.90;;;;;;5063054;28;20561;-65
2022/04/10 00:30:39;;;;;;;2.40;2.20;;;6.90;99.90;;;;;;5064014;28;20197;-65
2022/04/10 00:33:09;;;;;;;3.10;2.90;;;6.90;99.90;;;;;;5070571;28;20713;-65
2022/04/10 00:35:34;;;;;;;3.20;2.87;;;6.90;99.90;;;;;;5048130;28;20302;-65
2022/04/10 00:38:00;;;;;;;3.07;2.87;;;6.80;99.90;;;;;;5093040;28;20693;-65
2022/04/10 00:40:26;;;;;;;3.13;2.93;;;6.80;99.90;;;;;;5074818;28;20634;-65
2022/04/10 00:42:51;;;;;;;3.43;2.80;;;6.80;99.90;;;;;;5073561;28;20189;-65
2022/04/10 00:45:18;;;;;;;3.27;3.07;;;6.80;99.90;;;;;;5093655;28;20236;-65
2022/04/10 00:47:45;;;;;;;6.63;4.20;;;6.80;99.90;;;;;;5092743;28;20189;-65
2022/04/10 00:50:12;;;;;;;3.60;2.80;;;6.70;99.90;;;;;;5074947;28;20209;-65
2022/04/10 00:52:40;;;;;;;4.30;3.30;;;6.70;99.90;;;;;;5081072;28;20247;-65
2022/04/10 00:55:07;;;;;;;2.53;2.37;;;6.70;99.90;;;;;;5060222;28;20185;-65
2022/04/10 00:57:34;;;;;;;3.30;2.67;;;6.60;99.90;;;;;;5054608;28;20191;-64
2022/04/10 00:59:59;;;;;;;4.00;3.13;;;6.70;99.90;;;;;;5054716;28;20208;-65
2022/04/10 01:02:25;;;;;;;3.23;2.93;;;6.70;99.90;;;;;;5063680;28;20702;-65
2022/04/10 01:04:51;;;;;;;3.03;2.57;;;6.70;99.90;;;;;;5074164;28;20213;-67
2022/04/10 01:07:18;;;;;;;3.33;3.03;;;6.70;99.90;;;;;;5074516;28;20227;-65
2022/04/10 01:09:45;;;;;;;3.23;3.03;;;6.60;99.90;;;;;;5074799;28;20189;-65
2022/04/10 01:12:12;;;;;;;3.03;2.10;;;6.60;99.90;;;;;;5091577;28;20184;-65
2022/04/10 01:14:39;;;;;;;7.23;3.53;;;6.50;99.90;;;;;;5092930;28;20169;-65
2022/04/10 01:17:09;;;;;;;4.40;3.30;;;6.40;99.90;;;;;;5074826;28;20185;-65
2022/04/10 01:19:38;;;;;;;3.90;3.37;;;6.40;99.90;;;;;;5092254;28;20324;-65
2022/04/10 01:22:05;;;;;;;4.80;3.27;;;6.40;99.90;;;;;;5085728;28;20178;-64
2022/04/10 01:24:37;;;;;;;4.97;3.40;;;6.30;99.90;;;;;;5067216;28;20189;-64
2022/04/10 01:27:04;;;;;;;3.93;3.07;;;6.30;99.90;;;;;;5068822;28;20177;-64
2022/04/10 01:29:30;;;;;;;3.20;2.90;;;6.40;99.90;;;;;;5092137;28;20272;-65
2022/04/10 01:31:56;;;;;;;3.40;3.10;;;6.40;99.90;;;;;;5092369;28;20706;-64
2022/04/10 01:34:22;;;;;;;7.17;3.33;;;6.40;99.90;;;;;;5074419;28;20214;-65
2022/04/10 01:36:48;;;;;;;4.47;3.03;;;6.50;99.90;;;;;;5073626;28;20185;-65
2022/04/10 01:39:17;;;;;;;4.30;3.70;;;6.40;99.90;;;;;;5092502;28;20189;-65
2022/04/10 01:41:47;;;;;;;4.27;3.20;;;6.40;99.90;;;;;;5062946;28;20650;-65
2022/04/10 01:44:13;;;;;;;3.90;2.97;;;6.40;99.90;;;;;;5083281;28;20180;-64
2022/04/10 01:46:39;;;;;;;4.53;3.03;;;6.50;99.90;;;;;;5073794;28;20677;-65
2022/04/10 01:49:05;;;;;;;6.70;4.40;;;6.40;99.90;;;;;;5045210;28;20215;-65
2022/04/10 01:51:32;;;;;;;5.30;4.40;;;6.40;99.90;;;;;;5091335;28;20700;-65
2022/04/10 01:53:58;;;;;;;4.63;3.90;;;6.50;99.90;;;;;;5073372;28;20215;-64
2022/04/10 01:56:24;;;;;;;11.93;5.67;;;6.70;99.90;;;;;;5072242;28;20189;-65
2022/04/10 01:58:52;;;;;;;8.50;5.23;;;6.80;99.90;;;;;;5091588;28;20250;-65
2022/04/10 02:01:19;;;;;;;6.80;5.03;;;6.60;99.90;;;;;;5057985;28;20582;-64
2022/04/10 02:03:47;;;;;;;8.57;4.93;;;6.40;99.90;;;;;;5090921;28;20660;-64
2022/04/10 02:06:15;;;;;;;19.60;6.63;;;6.40;99.90;;;;;;5075651;28;20211;-63
2022/04/10 02:08:42;;;;;;;7.13;4.90;;;6.30;99.90;;;;;;5073570;28;20195;-64
2022/04/10 02:11:11;;;;;;;5.50;4.70;;;6.10;99.90;;;;;;5074337;28;20234;-64
2022/04/10 02:13:38;;;;;;;5.27;4.20;;;6.10;99.90;;;;;;5090914;28;20725;-63
2022/04/10 02:16:08;;;;;;;7.50;4.17;;;6.00;99.90;;;;;;5080936;28;20247;-64
2022/04/10 02:18:34;;;;;;;9.57;4.83;;;5.90;99.90;;;;;;5064758;28;20192;-64
2022/04/10 02:21:00;;;;;;;8.13;5.40;;;5.80;99.90;;;;;;5091980;28;20322;-64
2022/04/10 02:23:26;;;;;;;7.20;4.57;;;5.80;99.90;;;;;;5074062;28;20222;-64
2022/04/10 02:25:51;;;;;;;4.83;4.03;;;5.80;99.90;;;;;;5073177;28;20311;-64
2022/04/10 02:28:17;;;;;;;6.30;4.37;;;5.70;99.90;;;;;;5057278;28;20188;-64
2022/04/10 02:30:42;;;;;;;10.37;4.30;;;5.60;99.90;;;;;;5074959;28;20653;-64
2022/04/10 02:33:08;;;;;;;5.10;4.07;;;5.50;99.90;;;;;;5060389;28;20254;-64
2022/04/10 02:35:34;;;;;;;9.93;3.60;;;5.50;99.90;;;;;;5095007;28;20284;-64
2022/04/10 02:37:59;;;;;;;7.67;4.73;;;5.40;99.90;;;;;;5077046;28;20246;-64
2022/04/10 02:40:25;;;;;;;4.37;3.97;;;5.40;99.90;;;;;;5077437;28;20249;-64
2022/04/10 02:42:51;;;;;;;4.80;3.90;;;5.40;99.90;;;;;;5076745;28;20192;-64
2022/04/10 02:45:16;;;;;;;5.50;3.93;;;5.40;99.90;;;;;;5081921;28;20299;-64
2022/04/10 02:47:42;;;;;;;4.00;3.63;;;5.30;99.90;;;;;;5077237;28;20261;-65
2022/04/10 02:50:08;;;;;;;4.63;3.77;;;5.30;99.90;;;;;;5074277;28;20185;-65
2022/04/10 02:52:34;;;;;;;16.57;4.63;;;5.30;99.90;;;;;;5087344;28;20196;-65
2022/04/10 02:55:00;;;;;;;5.33;3.97;;;5.30;99.90;;;;;;5049775;28;20201;-64
2022/04/10 02:57:25;;;;;;;12.83;5.80;;;5.30;99.90;;;;;;5056358;28;20279;-64
2022/04/10 02:59:51;;;;;;;5.70;5.17;;;5.30;99.90;;;;;;5076646;28;20196;-65
2022/04/10 03:02:17;;;;;;;8.63;4.13;;;5.40;99.90;;;;;;5059947;28;20185;-65
2022/04/10 03:04:42;;;;;;;9.67;5.10;;;5.30;99.90;;;;;;5094850;28;20204;-65
2022/04/10 03:07:08;;;;;;;3.63;3.33;;;5.40;99.90;;;;;;5057076;28;20181;-65
2022/04/10 03:09:34;;;;;;;5.67;3.87;;;5.40;99.90;;;;;;5080865;28;20208;-64
2022/04/10 03:11:59;;;;;;;5.17;3.73;;;5.40;99.90;;;;;;5074874;28;20669;-64
2022/04/10 03:14:25;;;;;;;5.37;4.00;;;5.40;99.90;;;;;;5076238;28;20193;-65
2022/04/10 03:16:51;;;;;;;5.43;4.33;;;5.30;99.90;;;;;;5075644;28;20193;-64
2022/04/10 03:19:16;;;;;;;6.73;4.57;;;5.30;99.90;;;;;;5094330;28;20180;-65
2022/04/10 03:21:42;;;;;;;4.53;3.73;;;5.30;99.90;;;;;;5076746;28;20574;-65
2022/04/10 03:24:08;;;;;;;5.60;4.40;;;5.30;99.90;;;;;;5059580;28;20193;-65
2022/04/10 03:26:34;;;;;;;11.60;6.47;;;5.20;99.90;;;;;;5059952;28;20296;-65
2022/04/10 03:28:59;;;;;;;3.83;3.47;;;5.20;99.90;;;;;;5059727;28;20616;-65
2022/04/10 03:31:25;;;;;;;8.07;4.30;;;5.10;99.90;;;;;;5094185;28;20188;-65
2022/04/10 03:33:52;;;;;;;5.33;4.00;;;5.10;99.90;;;;;;5059222;28;20275;-64
2022/04/10 03:36:17;;;;;;;4.90;4.40;;;5.10;99.90;;;;;;5060502;28;20193;-66
2022/04/10 03:38:43;;;;;;;5.80;4.43;;;5.00;99.90;;;;;;5075511;28;20200;-64
2022/04/10 03:41:09;;;;;;;11.40;3.83;;;5.00;99.90;;;;;;5094399;28;20192;-64
2022/04/10 03:43:35;;;;;;;5.07;3.47;;;5.00;99.90;;;;;;5042424;28;20329;-64
2022/04/10 03:46:01;;;;;;;4.27;3.33;;;4.90;99.90;;;;;;5093697;28;20580;-64
2022/04/10 03:48:27;;;;;;;5.73;3.90;;;4.90;99.90;;;;;;5061827;28;20189;-64
2022/04/10 03:50:53;;;;;;;6.37;4.20;;;5.00;99.90;;;;;;5093708;28;20679;-64
2022/04/10 03:53:19;;;;;;;7.57;4.43;;;5.00;99.90;;;;;;5071618;28;20188;-64
2022/04/10 03:55:44;;;;;;;5.47;4.60;;;5.00;99.90;;;;;;5075292;28;20623;-64
2022/04/10 03:58:10;;;;;;;9.30;5.07;;;5.00;99.90;;;;;;5093969;28;20283;-64
2022/04/10 04:00:36;;;;;;;6.63;3.87;;;4.90;99.90;;;;;;5059790;28;20181;-64
2022/04/10 04:03:02;;;;;;;8.30;4.73;;;4.90;99.90;;;;;;5053840;28;20230;-63
2022/04/10 04:05:28;;;;;;;5.80;3.33;;;4.80;99.90;;;;;;5048092;28;20563;-64
2022/04/10 04:07:55;;;;;;;6.30;4.40;;;4.80;99.90;;;;;;5073982;28;20180;-63
2022/04/10 04:10:21;;;;;;;7.17;5.03;;;4.80;99.90;;;;;;5093746;28;20260;-63
2022/04/10 04:12:46;;;;;;;7.03;4.23;;;4.90;99.90;;;;;;5093168;28;20276;-63
2022/04/10 04:15:12;;;;;;;9.10;4.83;;;4.90;99.90;;;;;;5079469;28;20541;-64
2022/04/10 04:17:38;;;;;;;10.83;5.27;;;4.80;99.90;;;;;;5087587;28;20188;-63
2022/04/10 04:20:08;;;;;;;11.13;5.83;;;4.80;99.90;;;;;;5075005;28;20555;-64
2022/04/10 04:22:35;;;;;;;7.60;6.13;;;4.90;99.90;;;;;;5058949;28;20537;-63
2022/04/10 04:25:02;;;;;;;5.67;3.63;;;4.80;99.90;;;;;;5092449;28;20212;-63
2022/04/10 04:27:27;;;;;;;8.10;5.50;;;4.80;99.90;;;;;;5092286;28;20287;-64
2022/04/10 04:29:53;;;;;;;5.73;4.63;;;4.70;99.90;;;;;;5093060;28;20280;-64
2022/04/10 04:32:21;;;;;;;8.83;6.57;;;4.70;99.90;;;;;;5093311;28;20196;-64
2022/04/10 04:34:47;;;;;;;5.57;4.97;;;4.70;99.90;;;;;;5093686;28;20177;-65
2022/04/10 04:37:14;;;;;;;6.50;5.47;;;4.60;99.90;;;;;;5074897;28;20200;-63
2022/04/10 04:39:39;;;;;;;6.50;4.37;;;4.60;99.90;;;;;;5093054;28;20263;-63
2022/04/10 04:42:06;;;;;;;5.27;4.60;;;4.60;99.90;;;;;;5058693;28;20279;-64
2022/04/10 04:44:31;;;;;;;5.80;4.63;;;4.50;99.90;;;;;;5093179;28;20180;-64
2022/04/10 04:46:57;;;;;;;5.73;4.27;;;4.50;99.90;;;;;;5093024;28;20179;-64
2022/04/10 04:49:27;;;;;;;6.13;4.30;;;4.50;99.90;;;;;;5058287;28;20255;-63
2022/04/10 04:51:52;;;;;;;4.40;3.70;;;4.50;99.90;;;;;;5092586;28;20203;-63
2022/04/10 04:54:21;;;;;;;8.10;5.53;;;4.50;99.90;;;;;;5074794;28;20630;-63
2022/04/10 04:56:47;;;;;;;9.20;7.27;;;4.40;99.90;;;;;;5074448;28;20188;-63
2022/04/10 04:59:14;;;;;;;7.63;5.43;;;4.40;99.90;;;;;;5073998;28;20192;-63
2022/04/10 05:01:43;;;;;;;6.87;5.00;;;4.40;99.90;;;;;;5074876;28;20182;-64
2022/04/10 05:04:10;;;;;;;10.87;5.67;;;4.40;99.90;;;;;;5074501;28;20265;-64
2022/04/10 05:06:37;;;;;;;9.97;5.30;;;4.40;99.90;;;;;;5063156;28;20308;-64
2022/04/10 05:09:03;;;;;;;6.97;6.27;;;4.40;99.90;;;;;;5074946;28;20196;-64
2022/04/10 05:11:28;;;;;;;7.60;3.93;;;4.40;99.90;;;;;;5091826;28;20187;-65
2022/04/10 05:13:57;;;;;;;10.70;5.00;;;4.40;99.90;;;;;;5054861;28;20298;-64
2022/04/10 05:16:23;;;;;;;9.40;5.57;;;4.50;99.90;;;;;;5073021;28;20204;-64
2022/04/10 05:18:49;;;;;;;4.63;4.23;;;4.50;99.90;;;;;;5073912;28;20207;-64
2022/04/10 05:21:15;;;;;;;7.40;4.50;;;4.60;99.90;;;;;;5090933;28;20188;-64
2022/04/10 05:23:41;;;;;;;4.63;3.87;;;4.60;99.90;;;;;;5073791;28;20233;-64
2022/04/10 05:26:07;;;;;;;6.60;5.10;;;4.60;99.90;;;;;;5074015;28;20220;-64
2022/04/10 05:28:34;;;;;;;4.70;3.93;;;4.60;99.90;;;;;;5074145;28;20594;-64
2022/04/10 05:31:01;;;;;;;5.00;4.30;;;4.60;99.90;;;;;;5092217;28;20271;-64
2022/04/10 05:33:26;;;;;;;9.70;6.33;;;4.60;99.90;;;;;;5057646;28;20533;-64
2022/04/10 05:35:53;;;;;;;10.73;4.93;;;4.90;99.90;;;;;;5073259;28;20203;-65
2022/04/10 05:38:19;;;;;;;8.90;5.70;;;4.90;99.90;;;;;;5070896;28;20212;-64
2022/04/10 05:40:52;;;;;;;9.97;5.30;;;4.90;99.90;;;;;;5089482;28;20791;-64
2022/04/10 05:43:21;;;;;;;7.73;4.80;;;5.00;99.90;;;;;;5083210;28;20314;-64
2022/04/10 05:45:47;;;;;;;7.50;5.30;;;5.00;99.90;;;;;;5074894;28;20651;-64
2022/04/10 05:48:13;;;;;;;11.73;5.60;;;5.00;99.90;;;;;;5073213;28;20560;-65
2022/04/10 05:50:39;;;;;;;10.93;5.13;;;5.00;99.90;;;;;;5065637;28;20193;-64
2022/04/10 05:53:05;;;;;;;6.03;5.43;;;5.10;99.90;;;;;;5069103;28;20276;-64
2022/04/10 05:55:31;;;;;;;9.83;6.27;;;5.10;99.90;;;;;;5092062;28;20200;-64
2022/04/10 05:57:57;;;;;;;8.20;5.77;;;5.10;99.90;;;;;;5073269;28;20568;-64
2022/04/10 06:00:25;;;;;;;6.17;5.23;;;5.20;99.90;;;;;;5090803;28;20231;-64
2022/04/10 06:02:51;;;;;;;7.60;4.90;;;5.20;99.90;;;;;;5057393;28;20185;-64
2022/04/10 06:05:21;;;;;;;10.97;6.27;;;5.30;99.90;;;;;;5092656;28;20269;-64
2022/04/10 06:07:47;;;;;;;4.27;3.87;;;5.30;99.90;;;;;;5095973;28;20279;-65
2022/04/10 06:10:13;;;;;;;5.80;5.23;;;5.40;99.90;;;;;;5046796;28;20192;-65
2022/04/10 06:12:39;;;;;;;8.10;5.93;;;5.50;99.90;;;;;;5080427;28;20188;-65
2022/04/10 06:15:05;;;;;;;13.93;5.80;;;5.60;99.90;;;;;;5073267;28;20193;-65
2022/04/10 06:17:31;;;;;;;7.03;4.87;;;5.70;99.90;;;;;;5089317;28;20185;-65
2022/04/10 06:20:00;;;;;;;12.20;6.07;;;5.80;99.90;;;;;;5065624;28;20655;-64
2022/04/10 06:22:26;;;;;;;4.13;3.73;;;5.80;99.90;;;;;;5054179;28;20185;-65
2022/04/10 06:24:53;;;;;;;9.63;5.07;;;5.90;99.90;;;;;;5071752;28;20219;-64
2022/04/10 06:27:19;;;;;;;10.93;5.27;;;6.00;99.90;;;;;;5068988;28;20180;-64
2022/04/10 06:29:46;;;;;;;9.10;5.93;;;6.10;99.90;;;;;;5087092;28;20220;-64
2022/04/10 06:32:12;;;;;;;8.47;4.70;;;6.10;99.90;;;;;;5081465;28;20192;-65
2022/04/10 06:34:38;;;;;;;10.73;5.97;;;6.20;99.90;;;;;;5081162;28;20234;-65
2022/04/10 06:37:04;;;;;;;6.57;5.17;;;6.30;99.90;;;;;;5078456;28;20296;-64
2022/04/10 06:39:30;;;;;;;6.57;4.83;;;6.40;99.90;;;;;;5075413;28;20192;-64
2022/04/10 06:41:56;;;;;;;14.83;8.73;;;6.40;99.90;;;;;;5082761;28;20178;-64
2022/04/10 06:44:22;;;;;;;11.27;5.93;;;6.50;99.90;;;;;;5075858;28;20185;-64
2022/04/10 06:46:48;;;;;;;5.00;4.10;;;6.60;99.90;;;;;;5048779;28;20682;-64
2022/04/10 06:49:14;;;;;;;5.50;3.87;;;6.70;99.90;;;;;;5072192;28;20181;-64
2022/04/10 06:51:40;;;;;;;9.90;5.53;;;6.70;99.90;;;;;;5094213;28;20220;-75
2022/04/10 06:54:07;;;;;;;6.33;5.20;;;6.80;99.90;;;;;;5095159;28;20569;-75
2022/04/10 06:56:33;;;;;;;20.07;4.30;;;6.80;99.90;;;;;;5077540;28;20188;-67
2022/04/10 06:58:59;;;;;;;4.10;3.40;;;6.90;99.90;;;;;;5094763;28;20204;-66
2022/04/10 07:01:25;;;;;;;6.20;5.20;;;7.00;99.90;;;;;;5094453;28;20275;-66
2022/04/10 07:03:50;;;;;;;9.83;3.53;;;7.10;99.90;;;;;;5043924;28;20185;-65
2022/04/10 07:06:16;;;;;;;7.73;4.73;;;7.20;99.90;;;;;;5094899;28;20706;-66
2022/04/10 07:08:42;;;;;;;6.33;3.93;;;7.30;99.90;;;;;;5077111;28;20197;-66
2022/04/10 07:11:07;;;;;;;6.23;4.07;;;7.40;99.90;;;;;;5094164;28;20226;-66
2022/04/10 07:13:33;;;;;;;5.83;4.23;;;7.40;99.90;;;;;;5094865;28;20184;-65
2022/04/10 07:15:58;;;;;;;7.17;5.23;;;7.50;99.90;;;;;;5059048;28;20637;-66
2022/04/10 07:18:24;;;;;;;5.23;4.57;;;7.60;99.90;;;;;;5059797;28;20692;-65
2022/04/10 07:20:50;;;;;;;4.70;4.30;;;7.90;99.90;;;;;;5075409;28;20583;-64
2022/04/10 07:26:00;;;;;;;6.07;4.00;;;8.10;99.90;;;;;;5091228;28;20238;-65
2022/04/10 07:28:25;;;;;;;6.97;4.63;;;8.10;99.90;;;;;;5092083;28;20637;-68
2022/04/10 07:30:51;;;;;;;8.60;4.77;;;8.20;99.90;;;;;;5058426;28;20193;-66
2022/04/10 07:33:17;;;;;;;10.00;5.87;;;9.70;99.90;;;;;;5057261;28;20189;-64
2022/04/10 07:35:44;;;;;;;9.20;5.67;;;11.50;99.90;;;;;;5073536;28;20334;-65
2022/04/10 07:38:10;;;;;;;11.25;4.63;;;13.20;99.90;;;;;;5093834;28;20189;-65
2022/04/10 07:40:38;;;;;;;6.20;4.18;;;14.70;99.90;;;;;;5076377;28;20642;-72
2022/04/10 07:43:04;;;;;;;5.22;4.70;;;16.10;99.90;;;;;;5075620;28;20184;-74
2022/04/10 07:48:14;;;;;;;8.68;5.43;;;17.60;99.90;;;;;;5064359;28;20278;-68
2022/04/10 07:50:40;;;;;;;7.63;4.03;;;18.70;99.90;;;;;;5059907;28;20228;-68
2022/04/10 07:53:05;;;;;;;5.28;4.30;;;19.00;99.90;;;;;;5075573;28;20172;-67
2022/04/10 07:55:31;;;;;;;7.55;3.50;;;19.40;99.90;;;;;;5038085;28;20551;-68
2022/04/10 07:57:57;;;;;;;8.95;3.50;;;20.00;99.90;;;;;;5092361;28;20189;-68
2022/04/10 08:00:23;;;;;;;7.30;3.53;;;20.90;99.90;;;;;;5093895;28;20180;-68
2022/04/10 08:02:49;;;;;;;7.20;4.78;;;21.00;99.90;;;;;;5090040;28;20552;-70
2022/04/10 08:05:16;;;;;;;7.32;4.93;;;21.50;99.90;;;;;;5074458;28;20680;-66
2022/04/10 08:07:44;;;;;;;8.32;5.40;;;21.40;99.90;;;;;;5073336;28;20212;-67
2022/04/10 08:10:10;;;;;;;10.15;4.88;;;21.80;99.90;;;;;;5074215;28;20629;-70
2022/04/10 08:12:36;;;;;;;11.10;4.28;;;22.40;99.90;;;;;;5092230;28;20192;-66
2022/04/10 08:15:03;;;;;;;8.50;4.72;;;21.70;99.90;;;;;;5086569;28;20283;-67
2022/04/10 08:17:29;;;;;;;5.50;4.55;;;21.70;99.90;;;;;;5059024;28;20243;-70
2022/04/10 08:19:55;;;;;;;5.18;4.38;;;21.90;99.90;;;;;;5072824;28;20573;-66
2022/04/10 08:22:28;;;;;;;7.32;5.15;;;22.00;99.90;;;;;;5071836;28;20181;-67
2022/04/10 08:24:53;;;;;;;8.48;4.90;;;22.20;99.90;;;;;;5092976;28;20184;-67
2022/04/10 08:27:20;;;;;;;9.82;6.07;;;22.30;99.90;;;;;;5092997;28;20184;-66
2022/04/10 08:29:46;;;;;;;4.78;3.63;;;22.50;99.90;;;;;;5091222;28;20188;-67
2022/04/10 08:32:11;;;;;;;9.13;4.65;;;22.20;99.90;;;;;;5075249;28;20183;-68
2022/04/10 08:34:37;;;;;;;4.63;4.15;;;22.40;99.90;;;;;;5093248;28;20542;-68
2022/04/10 08:37:06;;;;;;;6.50;4.32;;;22.00;99.90;;;;;;5058740;28;20176;-68
2022/04/10 08:39:32;;;;;;;9.05;3.58;;;21.90;99.90;;;;;;5092892;28;20185;-65
2022/04/10 08:42:06;;;;;;;9.18;4.22;;;22.30;99.90;;;;;;5063716;28;20282;-64
2022/04/10 08:44:32;;;;;;;4.47;2.70;;;22.20;99.90;;;;;;5092404;28;20183;-64
2022/04/10 08:47:00;;;;;;;3.58;2.55;;;22.00;99.90;;;;;;5074457;28;20232;-64
2022/04/10 08:49:30;;;;;;;3.58;3.05;;;22.20;99.90;;;;;;5074152;28;20181;-64
2022/04/10 08:51:57;;;;;;;4.45;3.45;;;21.20;99.90;;;;;;5074511;28;20191;-65
2022/04/10 08:54:23;;;;;;;4.30;3.17;;;20.90;99.90;;;;;;5057491;28;20538;-64
2022/04/10 08:56:52;;;;;;;4.35;3.88;;;21.70;99.90;;;;;;5074707;28;20191;-65
2022/04/10 08:59:19;;;;;;;4.97;2.67;;;20.80;99.90;;;;;;5091172;28;20200;-64
2022/04/10 09:01:45;;;;;;;5.25;2.95;;;19.90;99.90;;;;;;5073244;28;20581;-64
2022/04/10 09:04:10;;;;;;;4.13;3.20;;;18.30;99.90;;;;;;5065134;28;20188;-65
2022/04/10 09:06:40;;;;;;;4.20;2.92;;;16.90;99.90;;;;;;5054137;28;20240;-65
2022/04/10 09:09:18;;;;;;;2.97;2.25;;;15.80;99.90;;;;;;5079712;28;20606;-65
2022/04/10 09:11:44;;;;;;;2.53;2.28;;;14.60;99.90;;;;;;5082496;28;20176;-69
2022/04/10 09:14:10;;;;;;;3.58;2.72;;;13.70;99.90;;;;;;5063804;28;20263;-64
2022/04/10 09:16:36;;;;;;;5.47;4.03;;;12.70;99.90;;;;;;5081131;28;20271;-73
2022/04/10 09:19:10;;;;;;;3.03;2.65;;;12.20;99.90;;;;;;5073157;28;20545;-61
2022/04/10 09:21:39;;;;;;;2.60;2.25;;;11.80;99.90;;;;;;5092354;28;20225;-62
2022/04/10 09:24:09;;;;;;;3.55;3.03;;;11.70;99.90;;;;;;5088936;28;20199;-61
2022/04/10 09:26:52;;;;;;;9.60;2.92;;;11.50;99.90;;;;;;5092325;28;20783;-60
2022/04/10 09:29:23;;;;;;;3.50;2.60;;;11.70;99.90;;;;;;5077838;28;20221;-61
2022/04/10 09:31:50;;;;;;;4.60;2.85;;;11.70;99.90;;;;;;5088278;28;20196;-63
2022/04/10 09:34:18;;;;;;;4.30;2.03;;;10.80;99.90;;;;;;5072837;28;20607;-60
2022/04/10 09:36:46;;;;;;;4.03;3.30;;;10.80;99.90;;;;;;5091084;28;20227;-62
2022/04/10 09:39:37;;;;;;;4.27;2.73;;;10.80;99.90;;;;;;5075925;28;20181;-64
2022/04/10 09:42:12;;;;;;;7.43;3.20;;;10.60;99.90;;;;;;5071596;28;20211;-64
2022/04/10 09:44:39;;;;;;;3.60;2.50;;;11.00;99.90;;;;;;5077871;28;20187;-64
2022/04/10 09:47:10;;;;;;;2.50;2.23;;;11.50;99.90;;;;;;5096391;28;20190;-65
2022/04/10 09:49:40;;;;;;;5.78;3.78;;;11.90;99.90;;;;;;5090216;28;20223;-64
2022/04/10 09:52:11;;;;;;;2.67;2.47;;;12.30;99.90;;;;;;5058555;28;20608;-65
2022/04/10 09:54:42;;;;;;;3.72;3.10;;;12.40;99.90;;;;;;5091235;28;20173;-64
2022/04/10 09:57:13;;;;;;;3.13;2.80;;;12.60;99.90;;;;;;5095756;28;20173;-65
2022/04/10 09:59:50;;;;;;;3.22;2.42;;;12.60;99.90;;;;;;5096536;28;20607;-65
2022/04/10 10:02:18;;;;;;;3.88;2.30;;;12.70;99.90;;;;;;5078181;28;20172;-65
2022/04/10 10:04:45;;;;;;;3.83;2.42;;;12.80;99.90;;;;;;5061545;28;20221;-67
2022/04/10 10:07:20;;;;;;;3.95;3.00;;;12.90;99.90;;;;;;5091588;28;20185;-68
2022/04/10 10:09:48;;;;;;;4.20;2.72;;;13.20;99.90;;;;;;5059218;28;20179;-66
2022/04/10 10:12:15;;;;;;;3.72;3.35;;;13.40;99.90;;;;;;5066482;28;20191;-67
2022/04/10 10:14:41;;;;;;;2.75;2.55;;;13.50;99.90;;;;;;5082137;28;20284;-68
2022/04/10 10:17:08;;;;;;;2.83;2.42;;;13.70;99.90;;;;;;5065127;28;20239;-67
2022/04/10 10:19:36;;;;;;;3.63;2.67;;;13.70;99.90;;;;;;5094201;28;20220;-66
2022/04/10 10:22:03;;;;;;;3.17;2.88;;;13.80;99.90;;;;;;5074528;28;20199;-68
2022/04/10 10:24:45;;;;;;;5.35;3.70;;;13.90;99.90;;;;;;5066465;28;20200;-66
2022/04/10 10:27:36;;;;;;;3.75;3.10;;;14.00;99.90;;;;;;5075438;28;20188;-68
2022/04/10 10:30:23;;;;;;;3.15;2.92;;;14.00;99.90;;;;;;5089249;28;20181;-65
2022/04/10 10:32:55;;;;;;;5.63;2.95;;;14.20;99.90;;;;;;5085664;28;20188;-67
2022/04/10 10:35:30;;;;;;;12.50;4.00;;;14.20;99.90;;;;;;5091872;28;20189;-65
2022/04/10 10:37:56;;;;;;;6.65;4.35;;;14.40;99.90;;;;;;5085511;28;20296;-65
2022/04/10 10:40:23;;;;;;;6.85;3.60;;;14.40;99.90;;;;;;5057663;28;20275;-66
2022/04/10 10:42:51;;;;;;;5.90;3.95;;;14.30;99.90;;;;;;5052803;28;20185;-67
2022/04/10 10:45:37;;;;;;;4.75;3.30;;;14.10;99.90;;;;;;5060767;28;20212;-66
2022/04/10 10:48:38;;;;;;;3.70;3.33;;;13.70;99.90;;;;;;5083471;28;20193;-69
2022/04/10 10:51:10;;;;;;;3.53;2.90;;;13.60;99.90;;;;;;5089537;28;20703;-65
2022/04/10 10:53:48;;;;;;;6.97;3.65;;;13.30;99.90;;;;;;5092848;28;20192;-66
2022/04/10 10:56:21;;;;;;;2.88;2.28;;;13.10;99.90;;;;;;5058604;28;20589;-67
2022/04/10 10:58:50;;;;;;;3.13;2.70;;;12.90;99.90;;;;;;5070784;28;20215;-63
2022/04/10 11:01:23;;;;;;;4.18;3.10;;;12.70;99.90;;;;;;5079163;28;20703;-67
2022/04/10 11:04:20;;;;;;;3.83;2.72;;;12.60;99.90;;;;;;5057130;28;20591;-67
2022/04/10 11:06:49;;;;;;;10.93;3.30;;;12.80;99.90;;;;;;5051228;28;20227;-66
2022/04/10 11:09:22;;;;;;;6.97;3.03;;;12.60;99.90;;;;;;5085709;28;20205;-70
2022/04/10 11:11:49;;;;;;;3.40;2.60;;;12.30;99.90;;;;;;5077335;28;20212;-69
2022/04/10 11:14:36;;;;;;;3.15;2.15;;;12.20;99.90;;;;;;5079080;28;20188;-72
2022/04/10 11:17:19;;;;;;;2.40;2.15;;;12.20;99.90;;;;;;5066703;28;20177;-66
2022/04/10 11:19:54;;;;;;;3.20;2.92;;;12.40;99.90;;;;;;5089845;28;20227;-68
2022/04/10 11:22:28;;;;;;;3.15;2.35;;;12.50;99.90;;;;;;5093465;28;21289;-73
2022/04/10 11:24:56;;;;;;;3.03;2.75;;;12.50;99.90;;;;;;5093480;28;20184;-73
2022/04/10 11:27:47;;;;;;;7.03;3.50;;;12.70;99.90;;;;;;5093611;28;20216;-66
2022/04/10 11:30:33;;;;;;;3.55;2.53;;;13.00;99.90;;;;;;5094146;28;20212;-66
2022/04/10 11:32:58;;;;;;;2.78;2.58;;;13.20;99.90;;;;;;5094121;28;20176;-67
2022/04/10 11:35:30;;;;;;;2.35;2.22;;;13.30;99.90;;;;;;5093900;28;20187;-66
2022/04/10 11:38:08;;;;;;;2.95;2.35;;;13.70;99.90;;;;;;5091481;28;20181;-67
2022/04/10 11:40:37;;;;;;;4.47;2.88;;;14.00;99.90;;;;;;5076381;28;20234;-76
2022/04/10 11:43:04;;;;;;;3.33;2.30;;;14.10;99.90;;;;;;5076950;28;20652;-72
2022/04/10 11:45:32;;;;;;;3.00;2.20;;;14.00;99.90;;;;;;5079908;28;20681;-70
2022/04/10 11:48:04;;;;;;;2.80;2.17;;;14.30;99.90;;;;;;5057320;28;20200;-72
2022/04/10 11:50:30;;;;;;;4.97;2.47;;;14.50;99.90;;;;;;5093499;28;20177;-75
2022/04/10 11:53:07;;;;;;;4.00;2.53;;;14.50;99.90;;;;;;5068016;28;20177;-75
2022/04/10 11:55:37;;;;;;;5.65;3.35;;;14.80;99.90;;;;;;5079203;28;20176;-72
2022/04/10 11:58:21;;;;;;;4.57;2.83;;;14.40;99.90;;;;;;5072620;28;20180;-75
2022/04/10 12:01:00;;;;;;;2.72;2.47;;;14.50;99.90;;;;;;5071904;28;20640;-69
2022/04/10 12:03:28;;;;;;;4.00;3.58;;;14.30;99.90;;;;;;5063397;28;20189;-74
2022/04/10 12:05:57;;;;;;;3.55;3.13;;;14.40;99.90;;;;;;5072508;28;20278;-74
2022/04/10 12:08:23;;;;;;;3.38;2.90;;;14.40;99.90;;;;;;5092883;28;20191;-74
2022/04/10 12:10:57;;;;;;;4.13;2.78;;;14.10;99.90;;;;;;5075169;28;20180;-74
2022/04/10 12:13:34;;;;;;;3.92;3.45;;;14.00;99.90;;;;;;5068518;28;20184;-74
2022/04/10 12:16:21;;;;;;;4.93;3.03;;;14.20;99.90;;;;;;5082180;28;20183;-73
2022/04/10 12:18:53;;;;;;;5.45;2.88;;;14.40;99.90;;;;;;5093446;28;20576;-74
2022/04/10 12:21:21;;;;;;;5.07;2.90;;;14.50;99.90;;;;;;5093456;28;20200;-74
2022/04/10 12:23:56;;;;;;;3.72;3.40;;;14.50;99.90;;;;;;5092913;28;20625;-74
2022/04/10 12:26:22;;;;;;;6.82;2.72;;;14.40;99.90;;;;;;5092621;28;20212;-74
2022/04/10 12:28:48;;;;;;;3.63;3.22;;;14.50;99.90;;;;;;5070888;28;20196;-74
2022/04/10 12:31:14;;;;;;;3.45;2.95;;;14.50;99.90;;;;;;5091940;28;20180;-75
2022/04/10 12:33:40;;;;;;;2.90;2.65;;;14.50;99.90;;;;;;5074412;28;20638;-73
2022/04/10 12:36:25;;;;;;;6.80;3.53;;;14.70;99.90;;;;;;5068206;28;20218;-73
2022/04/10 12:38:52;;;;;;;4.43;3.13;;;14.80;99.90;;;;;;5092936;28;20264;-77
2022/04/10 12:41:27;;;;;;;3.95;3.05;;;14.60;99.90;;;;;;5041391;28;20237;-70
2022/04/10 12:44:06;;;;;;;2.83;2.53;;;14.70;99.90;;;;;;5074752;28;20191;-70
2022/04/10 12:46:33;;;;;;;3.15;2.83;;;14.60;99.90;;;;;;5093213;28;20204;-74
2022/04/10 12:49:13;;;;;;;3.47;3.17;;;14.90;99.90;;;;;;5069659;28;20307;-72
2022/04/10 12:51:55;;;;;;;2.63;2.38;;;14.90;99.90;;;;;;5083058;28;20229;-72
2022/04/10 12:54:40;;;;;;;3.25;2.00;;;14.90;99.90;;;;;;5074893;28;20191;-72
2022/04/10 12:57:26;;;;;;;4.78;3.15;;;14.70;99.90;;;;;;5055602;28;20534;-72
2022/04/10 12:59:52;;;;;;;3.42;3.10;;;14.60;99.90;;;;;;5092263;28;20200;-72
2022/04/10 13:02:42;;;;;;;5.55;3.00;;;14.40;99.90;;;;;;5092479;28;20189;-72
2022/04/10 13:05:13;;;;;;;5.90;3.83;;;14.30;99.90;;;;;;5091889;28;20212;-71